createdAt,value
2023-12-03T00:00:13.102Z,-3.14
2023-12-03T00:02:16.446Z,-3.08
2023-12-03T00:04:19.732Z,-3.23
2023-12-03T00:06:23.044Z,-3.03
2023-12-03T00:08:32.250Z,-3.11
2023-12-03T00:10:42.699Z,-3.29
2023-12-03T00:12:47.164Z,-3.29
2023-12-03T00:14:50.787Z,-3.35
2023-12-03T00:16:53.701Z,-3.43
2023-12-03T00:18:56.765Z,-3.37
2023-12-03T00:21:00.021Z,-3.16
2023-12-03T00:23:04.531Z,-3.17
2023-12-03T00:25:08.295Z,-3.35
2023-12-03T00:27:11.333Z,-3.45
2023-12-03T00:29:15.691Z,-3.63
2023-12-03T00:31:18.817Z,-3.56
2023-12-03T00:33:21.799Z,-3.67
2023-12-03T00:35:24.873Z,-3.70
2023-12-03T00:37:28.165Z,-3.59
2023-12-03T00:39:31.944Z,-3.67
2023-12-03T00:41:34.891Z,-3.75
2023-12-03T00:43:38.247Z,-3.52
2023-12-03T00:45:42.762Z,-3.77
2023-12-03T00:47:45.820Z,-3.63
2023-12-03T00:49:48.799Z,-3.37
2023-12-03T00:51:52.049Z,-3.65
2023-12-03T00:53:54.922Z,-3.58
2023-12-03T00:55:58.075Z,-3.64
2023-12-03T00:58:01.071Z,-3.72
2023-12-03T01:00:04.446Z,-3.82
2023-12-03T01:02:09.144Z,-3.81
2023-12-03T01:04:12.340Z,-3.63
2023-12-03T01:06:15.321Z,-3.58
2023-12-03T01:08:18.534Z,-3.45
2023-12-03T01:10:21.628Z,-3.64
2023-12-03T01:12:24.592Z,-3.79
2023-12-03T01:14:27.868Z,-3.69
2023-12-03T01:16:31.090Z,-3.58
2023-12-03T01:18:35.500Z,-3.57
2023-12-03T01:20:38.577Z,-3.54
2023-12-03T01:22:41.480Z,-3.61
2023-12-03T01:24:44.559Z,-3.61
2023-12-03T01:26:47.566Z,-3.53
2023-12-03T01:28:50.774Z,-3.54
2023-12-03T01:30:53.995Z,-3.46
2023-12-03T01:32:57.151Z,-3.42
2023-12-03T01:35:01.593Z,-3.59
2023-12-03T01:37:04.807Z,-3.58
2023-12-03T01:39:08.072Z,-3.45
2023-12-03T01:41:11.015Z,-3.59
2023-12-03T01:43:13.880Z,-3.47
2023-12-03T01:45:17.151Z,-3.19
2023-12-03T01:47:21.094Z,-3.24
2023-12-03T01:49:24.268Z,-3.20
2023-12-03T01:51:29.467Z,-3.04
2023-12-03T01:53:32.925Z,-3.06
2023-12-03T01:55:36.908Z,-2.96
2023-12-03T01:57:40.610Z,-3.00
2023-12-03T01:59:43.745Z,-3.19
2023-12-03T02:01:47.030Z,-3.10
2023-12-03T02:03:50.275Z,-3.27
2023-12-03T02:06:03.698Z,-3.06
2023-12-03T02:08:08.242Z,-3.20
2023-12-03T02:10:11.441Z,-3.16
2023-12-03T02:12:14.823Z,-2.97
2023-12-03T02:14:17.858Z,-3.10
2023-12-03T02:16:20.794Z,-3.13
2023-12-03T02:18:24.504Z,-2.96
2023-12-03T02:20:27.634Z,-3.12
2023-12-03T02:22:30.571Z,-3.07
2023-12-03T02:24:35.905Z,-3.09
2023-12-03T02:26:39.133Z,-3.07
2023-12-03T02:28:42.024Z,-3.31
2023-12-03T02:30:45.641Z,-3.27
2023-12-03T02:32:49.649Z,-3.33
2023-12-03T02:34:52.656Z,-3.43
2023-12-03T02:36:55.617Z,-3.44
2023-12-03T02:38:58.807Z,-3.48
2023-12-03T02:41:03.438Z,-3.51
2023-12-03T02:43:06.476Z,-3.37
2023-12-03T02:45:11.006Z,-3.39
2023-12-03T02:47:14.056Z,-3.38
2023-12-03T02:49:17.121Z,-3.50
2023-12-03T02:51:20.390Z,-3.45
2023-12-03T02:53:23.339Z,-3.44
2023-12-03T02:55:26.308Z,-3.39
2023-12-03T02:57:30.758Z,-3.40
2023-12-03T02:59:33.777Z,-3.32
2023-12-03T03:01:37.095Z,-3.46
2023-12-03T03:03:40.197Z,-3.39
2023-12-03T03:05:43.351Z,-3.40
2023-12-03T03:07:46.506Z,-3.49
2023-12-03T03:09:49.330Z,-3.45
2023-12-03T03:11:53.534Z,-3.48
2023-12-03T03:13:57.966Z,-3.53
2023-12-03T03:16:01.693Z,-3.54
2023-12-03T03:18:04.743Z,-3.60
2023-12-03T03:20:09.624Z,-3.53
2023-12-03T03:22:13.286Z,-3.49
2023-12-03T03:24:16.234Z,-3.63
2023-12-03T03:26:19.257Z,-3.61
2023-12-03T03:28:23.817Z,-3.68
2023-12-03T03:30:28.191Z,-3.63
2023-12-03T03:32:31.226Z,-3.59
2023-12-03T03:34:34.321Z,-3.57
2023-12-03T03:36:37.321Z,-3.53
2023-12-03T03:38:40.761Z,-3.45
2023-12-03T03:40:43.806Z,-3.50
2023-12-03T03:42:46.768Z,-3.40
2023-12-03T03:44:50.846Z,-3.42
2023-12-03T03:46:55.468Z,-3.55
2023-12-03T03:48:58.882Z,-3.50
2023-12-03T03:51:01.746Z,-3.48
2023-12-03T03:53:04.642Z,-3.48
2023-12-03T03:55:08.255Z,-3.50
2023-12-03T03:57:11.220Z,-3.51
2023-12-03T03:59:14.468Z,-3.53
2023-12-03T04:01:18.628Z,-3.55
2023-12-03T04:03:23.217Z,-3.57
2023-12-03T04:05:26.635Z,-3.52
2023-12-03T04:07:29.922Z,-3.52
2023-12-03T04:09:33.413Z,-3.54
2023-12-03T04:11:40.947Z,-3.53
2023-12-03T04:13:43.950Z,-3.53
2023-12-03T04:15:47.121Z,-3.50
2023-12-03T04:17:50.190Z,-3.57
2023-12-03T04:19:54.597Z,-3.53
2023-12-03T04:21:57.521Z,-3.53
2023-12-03T04:24:00.566Z,-3.52
2023-12-03T04:26:03.577Z,-3.49
2023-12-03T04:28:07.978Z,-3.50
2023-12-03T04:30:12.276Z,-3.51
2023-12-03T04:32:15.188Z,-3.46
2023-12-03T04:34:18.177Z,-3.48
2023-12-03T04:36:24.434Z,-3.47
2023-12-03T04:38:27.409Z,-3.48
2023-12-03T04:40:30.328Z,-3.50
2023-12-03T04:42:33.453Z,-3.47
2023-12-03T04:44:36.513Z,-3.46
2023-12-03T04:46:42.721Z,-3.48
2023-12-03T04:48:45.864Z,-3.48
2023-12-03T04:50:49.313Z,-3.52
2023-12-03T04:52:53.798Z,-3.51
2023-12-03T04:54:56.824Z,-3.51
2023-12-03T04:56:59.974Z,-3.47
2023-12-03T04:59:03.275Z,-3.45
2023-12-03T05:01:06.585Z,-3.48
2023-12-03T05:03:10.012Z,-3.48
2023-12-03T05:05:13.126Z,-3.49
2023-12-03T05:07:16.938Z,-3.48
2023-12-03T05:09:21.497Z,-3.49
2023-12-03T05:11:24.682Z,-3.50
2023-12-03T05:13:27.527Z,-3.50
2023-12-03T05:15:30.733Z,-3.50
2023-12-03T05:17:33.981Z,-3.46
2023-12-03T05:19:37.048Z,-3.48
2023-12-03T05:21:39.978Z,-3.50
2023-12-03T05:23:43.084Z,-3.49
2023-12-03T05:25:48.643Z,-3.41
2023-12-03T05:27:52.243Z,-3.44
2023-12-03T05:29:55.314Z,-3.43
2023-12-03T05:31:58.278Z,-3.47
2023-12-03T05:34:01.258Z,-3.47
2023-12-03T05:36:05.219Z,-3.44
2023-12-03T05:38:08.248Z,-3.44
2023-12-03T05:40:11.800Z,-3.46
2023-12-03T05:42:16.468Z,-3.47
2023-12-03T05:44:19.645Z,-3.48
2023-12-03T05:46:22.682Z,-3.49
2023-12-03T05:48:25.776Z,-3.42
2023-12-03T05:50:28.847Z,-3.42
2023-12-03T05:52:32.137Z,-3.40
2023-12-03T05:54:35.301Z,-3.42
2023-12-03T05:56:38.343Z,-3.38
2023-12-03T05:58:42.662Z,-3.41
2023-12-03T06:00:45.678Z,-3.39
2023-12-03T06:02:48.618Z,-3.40
2023-12-03T06:04:51.690Z,-3.36
2023-12-03T06:06:54.801Z,-3.37
2023-12-03T06:08:57.857Z,-3.35
2023-12-03T06:11:01.197Z,-3.33
2023-12-03T06:13:04.155Z,-3.39
2023-12-03T06:15:10.463Z,-3.30
2023-12-03T06:17:13.536Z,-3.33
2023-12-03T06:19:16.553Z,-3.31
2023-12-03T06:21:19.854Z,-3.31
2023-12-03T06:23:22.848Z,-3.29
2023-12-03T06:25:25.898Z,-3.29
2023-12-03T06:27:28.902Z,-3.29
2023-12-03T06:29:32.075Z,-3.31
2023-12-03T06:31:36.483Z,-3.25
2023-12-03T06:33:39.734Z,-3.29
2023-12-03T06:35:42.796Z,-3.25
2023-12-03T06:37:45.808Z,-3.25
2023-12-03T06:39:49.236Z,-3.27
2023-12-03T06:41:52.391Z,-3.21
2023-12-03T06:43:55.269Z,-3.22
2023-12-03T06:46:00.563Z,-3.16
2023-12-03T06:48:05.543Z,-3.24
2023-12-03T06:50:09.453Z,-3.18
2023-12-03T06:52:12.307Z,-3.11
2023-12-03T06:54:15.385Z,-3.16
2023-12-03T06:56:18.307Z,-3.16
2023-12-03T06:58:21.289Z,-3.15
2023-12-03T07:00:27.063Z,-3.11
2023-12-03T07:02:30.089Z,-3.09
2023-12-03T07:04:34.440Z,-3.07
2023-12-03T07:06:37.647Z,-2.99
2023-12-03T07:08:40.560Z,-2.82
2023-12-03T07:10:43.674Z,-2.90
2023-12-03T07:12:46.955Z,-2.82
2023-12-03T07:14:50.177Z,-2.85
2023-12-03T07:16:53.136Z,-2.77
2023-12-03T07:18:56.704Z,-2.69
2023-12-03T07:21:01.101Z,-2.72
2023-12-03T07:23:04.063Z,-2.72
2023-12-03T07:25:09.083Z,-2.69
2023-12-03T07:27:12.037Z,-2.77
2023-12-03T07:29:14.983Z,-2.61
2023-12-03T07:31:18.118Z,-2.66
2023-12-03T07:33:21.152Z,-2.40
2023-12-03T07:35:24.289Z,-2.19
2023-12-03T07:37:28.672Z,-2.23
2023-12-03T07:39:31.728Z,-1.95
2023-12-03T07:41:34.703Z,-2.02
2023-12-03T07:43:37.914Z,-2.04
2023-12-03T07:45:40.784Z,-2.14
2023-12-03T07:47:44.379Z,-1.85
2023-12-03T07:49:47.387Z,-2.05
2023-12-03T07:51:50.706Z,-1.79
2023-12-03T07:53:55.267Z,-1.93
2023-12-03T07:55:58.472Z,-1.87
2023-12-03T07:58:01.454Z,-1.72
2023-12-03T08:00:06.597Z,-1.88
2023-12-03T08:02:15.537Z,-1.39
2023-12-03T08:04:18.685Z,-1.42
2023-12-03T08:06:21.679Z,-1.44
2023-12-03T08:08:24.746Z,-1.44
2023-12-03T08:10:29.139Z,-1.40
2023-12-03T08:12:32.179Z,-1.66
2023-12-03T08:14:35.206Z,-1.65
2023-12-03T08:16:38.374Z,-1.91
2023-12-03T08:18:41.490Z,-1.78
2023-12-03T08:20:44.637Z,-1.54
2023-12-03T08:22:47.752Z,-1.73
2023-12-03T08:24:54.111Z,-1.61
2023-12-03T08:26:58.563Z,-1.69
2023-12-03T08:29:01.996Z,-1.74
2023-12-03T08:31:05.543Z,-1.70
2023-12-03T08:33:08.800Z,-1.89
2023-12-03T08:35:12.078Z,-1.53
2023-12-03T08:37:15.389Z,-1.72
2023-12-03T08:39:18.287Z,-1.95
2023-12-03T08:41:21.365Z,-1.79
2023-12-03T08:43:25.741Z,-1.56
2023-12-03T08:45:29.391Z,-1.63
2023-12-03T08:47:32.481Z,-1.76
2023-12-03T08:49:35.537Z,-1.89
2023-12-03T08:51:40.114Z,-1.77
2023-12-03T08:53:43.312Z,-1.58
2023-12-03T08:55:46.278Z,-1.78
2023-12-03T08:57:50.231Z,-1.65
2023-12-03T08:59:54.746Z,-1.65
2023-12-03T09:01:58.552Z,-1.63
2023-12-03T09:04:01.536Z,-1.65
2023-12-03T09:06:04.923Z,-1.63
2023-12-03T09:08:07.907Z,-1.63
2023-12-03T09:10:11.091Z,-1.51
2023-12-03T09:12:15.772Z,-1.70
2023-12-03T09:14:19.780Z,-1.47
2023-12-03T09:16:24.568Z,-1.37
2023-12-03T09:18:28.287Z,-1.67
2023-12-03T09:20:31.426Z,-1.66
2023-12-03T09:22:34.978Z,-1.51
2023-12-03T09:24:37.937Z,-1.73
2023-12-03T09:26:43.481Z,-1.36
2023-12-03T09:28:46.923Z,-1.49
2023-12-03T09:30:49.867Z,-1.84
2023-12-03T09:32:55.098Z,-1.71
2023-12-03T09:34:58.190Z,-1.65
2023-12-03T09:37:02.534Z,-1.71
2023-12-03T09:39:09.228Z,-1.71
2023-12-03T09:41:17.184Z,-1.86
2023-12-03T09:43:21.968Z,-1.64
2023-12-03T09:45:28.523Z,-1.81
2023-12-03T09:47:36.484Z,-1.60
2023-12-03T09:49:47.097Z,-1.63
2023-12-03T09:51:51.068Z,-1.78
2023-12-03T09:53:57.890Z,-1.52
2023-12-03T09:56:01.366Z,-1.56
2023-12-03T09:58:04.743Z,-1.39
2023-12-03T10:00:09.141Z,-1.36
2023-12-03T10:02:16.105Z,-1.60
2023-12-03T10:04:19.347Z,-1.64
2023-12-03T10:06:24.338Z,-1.61
2023-12-03T10:08:30.373Z,-1.53
2023-12-03T10:10:36.101Z,-1.40
2023-12-03T10:12:44.550Z,-1.52
2023-12-03T10:14:47.984Z,-1.52
2023-12-03T10:16:51.383Z,-1.53
2023-12-03T10:18:54.539Z,-1.24
2023-12-03T10:21:07.923Z,-1.22
2023-12-03T10:23:17.401Z,-1.27
2023-12-03T10:25:31.018Z,-1.49
2023-12-03T10:27:34.234Z,-1.22
2023-12-03T10:29:39.107Z,-0.85
2023-12-03T10:31:42.114Z,-1.38
2023-12-03T10:33:45.572Z,-1.34
2023-12-03T10:35:48.727Z,-1.15
2023-12-03T10:37:52.491Z,-1.14
2023-12-03T10:39:58.170Z,-1.08
2023-12-03T10:42:01.262Z,-1.37
2023-12-03T10:44:04.430Z,-1.29
2023-12-03T10:46:09.849Z,-1.40
2023-12-03T10:48:13.076Z,-1.25
2023-12-03T10:50:16.210Z,-1.29
2023-12-03T10:52:20.440Z,-1.04
2023-12-03T10:54:23.811Z,-1.02
2023-12-03T10:56:29.830Z,-0.96
2023-12-03T10:58:34.751Z,-1.09
2023-12-03T11:00:41.402Z,-1.09
2023-12-03T11:02:49.551Z,-0.97
2023-12-03T11:05:00.355Z,-1.11
2023-12-03T11:07:06.205Z,-1.17
2023-12-03T11:09:09.516Z,-1.14
2023-12-03T11:11:14.015Z,-0.70
2023-12-03T11:13:22.736Z,-0.90
2023-12-03T11:15:29.602Z,-1.01
2023-12-03T11:17:39.227Z,-1.21
2023-12-03T11:19:50.501Z,-1.38
2023-12-03T11:22:06.874Z,-1.21
2023-12-03T11:24:49.900Z,-1.29
2023-12-03T11:26:53.118Z,-1.31
2023-12-03T11:29:01.110Z,-1.17
2023-12-03T11:31:04.416Z,-0.78
2023-12-03T11:33:09.751Z,-1.08
2023-12-03T11:35:16.387Z,-1.00
2023-12-03T11:37:22.667Z,-1.01
2023-12-03T11:39:25.876Z,-1.13
2023-12-03T11:41:40.094Z,-1.19
2023-12-03T11:43:44.379Z,-0.92
2023-12-03T11:45:50.051Z,-0.85
2023-12-03T11:48:10.025Z,-0.91
2023-12-03T11:50:17.620Z,-0.78
2023-12-03T11:52:22.195Z,-0.51
2023-12-03T11:54:27.325Z,-0.66
2023-12-03T11:56:31.126Z,-0.64
2023-12-03T11:58:34.816Z,-0.48
2023-12-03T12:00:40.028Z,-0.59
2023-12-03T12:02:44.813Z,-0.76
2023-12-03T12:04:48.037Z,-0.60
2023-12-03T12:06:52.442Z,-0.64
2023-12-03T12:08:57.855Z,-0.94
2023-12-03T12:11:00.844Z,-1.05
2023-12-03T12:13:05.896Z,-0.98
2023-12-03T12:15:09.891Z,-1.06
2023-12-03T12:17:13.376Z,-1.20
2023-12-03T12:19:18.093Z,-1.33
2023-12-03T12:21:23.002Z,-1.56
2023-12-03T12:23:26.568Z,-1.64
2023-12-03T12:25:30.288Z,-1.38
2023-12-03T12:27:33.297Z,-1.53
2023-12-03T12:29:36.393Z,-1.74
2023-12-03T12:31:39.514Z,-1.46
2023-12-03T12:33:42.757Z,-1.55
2023-12-03T12:35:51.895Z,-1.75
2023-12-03T12:38:01.890Z,-1.82
2023-12-03T12:40:10.260Z,-1.70
2023-12-03T12:42:24.609Z,-1.45
2023-12-03T12:44:46.385Z,-1.45
2023-12-03T12:46:54.188Z,-1.39
2023-12-03T12:49:15.654Z,-1.49
2023-12-03T12:51:24.976Z,-1.39
2023-12-03T12:53:48.448Z,-1.37
2023-12-03T12:55:52.099Z,-1.28
2023-12-03T12:57:55.906Z,-1.35
2023-12-03T12:59:58.961Z,-1.41
2023-12-03T13:02:01.984Z,-1.17
2023-12-03T13:04:07.097Z,-1.23
2023-12-03T13:06:12.023Z,-1.28
2023-12-03T13:08:16.537Z,-1.22
2023-12-03T13:10:19.805Z,-1.28
2023-12-03T13:12:22.891Z,-1.32
2023-12-03T13:14:25.751Z,-1.15
2023-12-03T13:16:30.017Z,-1.40
2023-12-03T13:18:33.290Z,-1.54
2023-12-03T13:20:37.523Z,-1.62
2023-12-03T13:22:40.448Z,-1.88
2023-12-03T13:24:44.903Z,-1.96
2023-12-03T13:26:48.618Z,-1.93
2023-12-03T13:28:51.758Z,-2.01
2023-12-03T13:30:55.141Z,-2.09
2023-12-03T13:33:00.207Z,-2.09
2023-12-03T13:35:06.244Z,-2.27
2023-12-03T13:37:09.613Z,-2.29
2023-12-03T13:39:12.591Z,-2.20
2023-12-03T13:41:17.737Z,-2.28
2023-12-03T13:43:20.854Z,-2.32
2023-12-03T13:45:24.535Z,-2.41
2023-12-03T13:47:27.652Z,-2.54
2023-12-03T13:49:30.889Z,-2.59
2023-12-03T13:51:34.189Z,-2.67
2023-12-03T13:53:37.740Z,-2.69
2023-12-03T13:55:40.618Z,-2.67
2023-12-03T13:57:45.176Z,-2.84
2023-12-03T14:01:51.238Z,-2.91
2023-12-03T14:03:54.187Z,-2.98
2023-12-03T14:05:57.383Z,-3.03
2023-12-03T14:08:00.444Z,-3.11
2023-12-03T14:10:03.402Z,-3.22
2023-12-03T14:12:06.732Z,-3.21
2023-12-03T14:14:11.925Z,-3.11
2023-12-03T14:16:16.133Z,-3.05
2023-12-03T14:18:19.408Z,-3.12
2023-12-03T14:20:22.444Z,-3.15
2023-12-03T14:22:25.637Z,-3.26
2023-12-03T14:24:28.630Z,-3.31
2023-12-03T14:26:31.604Z,-3.32
2023-12-03T14:28:38.084Z,-3.36
2023-12-03T14:30:44.007Z,-3.37
2023-12-03T14:32:48.165Z,-3.41
2023-12-03T14:34:51.110Z,-3.48
2023-12-03T14:36:53.956Z,-3.46
2023-12-03T14:38:56.988Z,-3.57
2023-12-03T14:40:59.918Z,-3.63
2023-12-03T14:43:02.907Z,-3.72
2023-12-03T14:45:06.853Z,-3.82
2023-12-03T14:47:11.351Z,-3.96
2023-12-03T14:49:14.317Z,-4.05
2023-12-03T14:51:17.793Z,-4.18
2023-12-03T14:53:21.183Z,-4.32
2023-12-03T14:55:24.291Z,-4.43
2023-12-03T14:57:27.613Z,-4.44
2023-12-03T14:59:30.613Z,-4.60
2023-12-03T15:01:34.780Z,-4.67
2023-12-03T15:03:40.426Z,-4.79
2023-12-03T15:05:43.289Z,-4.91
2023-12-03T15:07:46.633Z,-5.00
2023-12-03T15:09:52.574Z,-5.12
2023-12-03T15:11:55.283Z,-5.20
2023-12-03T15:13:58.146Z,-5.23
2023-12-03T15:16:01.280Z,-5.20
2023-12-03T15:18:04.524Z,-5.18
2023-12-03T15:20:10.286Z,-5.26
2023-12-03T15:22:13.409Z,-5.34
2023-12-03T15:24:16.510Z,-5.37
2023-12-03T15:26:19.427Z,-5.31
2023-12-03T15:28:22.582Z,-5.35
2023-12-03T15:30:27.793Z,-5.39
2023-12-03T15:32:33.495Z,-5.38
2023-12-03T15:34:36.510Z,-5.42
2023-12-03T15:36:41.021Z,-5.37
2023-12-03T15:38:43.974Z,-5.33
2023-12-03T15:40:47.081Z,-5.25
2023-12-03T15:42:55.938Z,-5.19
2023-12-03T15:44:59.119Z,-5.12
2023-12-03T15:47:02.123Z,-5.00
2023-12-03T15:49:09.794Z,-4.98
2023-12-03T15:51:16.852Z,-4.95
2023-12-03T15:53:21.306Z,-4.93
2023-12-03T15:55:24.861Z,-4.89
2023-12-03T15:57:28.051Z,-4.89
2023-12-03T15:59:31.016Z,-4.88
2023-12-03T16:01:34.025Z,-4.85
2023-12-03T16:03:37.382Z,-4.85
2023-12-03T16:05:40.431Z,-4.85
2023-12-03T16:07:46.979Z,-4.84
2023-12-03T16:09:51.475Z,-4.84
2023-12-03T16:11:55.366Z,-4.83
2023-12-03T16:13:58.448Z,-4.83
2023-12-03T16:16:03.677Z,-4.86
2023-12-03T16:18:06.891Z,-4.93
2023-12-03T16:20:10.441Z,-4.93
2023-12-03T16:22:13.499Z,-4.94
2023-12-03T16:24:16.572Z,-4.92
2023-12-03T16:26:21.122Z,-4.95
2023-12-03T16:28:24.114Z,-4.95
2023-12-03T16:30:27.259Z,-4.95
2023-12-03T16:32:30.245Z,-4.96
2023-12-03T16:34:33.422Z,-4.97
2023-12-03T16:36:36.987Z,-4.98
2023-12-03T16:38:39.987Z,-4.99
2023-12-03T16:40:44.041Z,-4.98
2023-12-03T16:42:48.458Z,-4.96
2023-12-03T16:44:52.477Z,-4.92
2023-12-03T16:46:55.558Z,-4.91
2023-12-03T16:48:59.373Z,-4.88
2023-12-03T16:51:03.025Z,-4.88
2023-12-03T16:53:06.528Z,-4.86
2023-12-03T16:55:10.063Z,-4.85
2023-12-03T16:57:13.870Z,-4.85
2023-12-03T16:59:20.349Z,-4.85
2023-12-03T17:01:23.365Z,-4.85
2023-12-03T17:03:26.381Z,-4.84
2023-12-03T17:05:29.868Z,-4.98
2023-12-03T17:07:33.640Z,-4.97
2023-12-03T17:09:37.566Z,-4.95
2023-12-03T17:11:40.830Z,-4.95
2023-12-03T17:13:43.994Z,-4.90
2023-12-03T17:15:49.116Z,-4.90
2023-12-03T17:17:52.023Z,-4.92
2023-12-03T17:19:55.106Z,-4.90
2023-12-03T17:21:59.330Z,-4.93
2023-12-03T17:24:02.683Z,-4.93
2023-12-03T17:26:08.390Z,-4.91
2023-12-03T17:28:11.012Z,-5.01
2023-12-03T17:30:14.248Z,-5.15
2023-12-03T17:32:18.736Z,-5.04
2023-12-03T17:34:21.817Z,-4.95
2023-12-03T17:36:24.930Z,-4.93
2023-12-03T17:38:28.318Z,-4.86
2023-12-03T17:40:31.473Z,-4.89
2023-12-03T17:42:34.991Z,-4.95
2023-12-03T17:44:37.945Z,-4.93
2023-12-03T17:46:40.945Z,-4.93
2023-12-03T17:48:46.383Z,-4.98
2023-12-03T17:50:49.507Z,-4.99
2023-12-03T17:52:52.528Z,-4.99
2023-12-03T17:54:55.499Z,-4.99
2023-12-03T17:56:58.497Z,-5.04
2023-12-03T17:59:01.506Z,-5.14
2023-12-03T18:01:04.994Z,-5.11
2023-12-03T18:03:11.528Z,-5.25
2023-12-03T18:05:16.202Z,-5.23
2023-12-03T18:07:19.125Z,-5.23
2023-12-03T18:09:22.136Z,-5.16
2023-12-03T18:11:25.531Z,-5.41
2023-12-03T18:13:29.936Z,-5.24
2023-12-03T18:15:34.328Z,-5.26
2023-12-03T18:17:38.982Z,-5.22
2023-12-03T18:19:43.437Z,-5.33
2023-12-03T18:21:47.921Z,-5.41
2023-12-03T18:23:50.914Z,-5.23
2023-12-03T18:25:53.984Z,-5.19
2023-12-03T18:27:57.015Z,-5.16
2023-12-03T18:30:00.677Z,-5.14
2023-12-03T18:32:03.695Z,-5.17
2023-12-03T18:34:07.114Z,-5.19
2023-12-03T18:36:14.528Z,-5.18
2023-12-03T18:38:20.074Z,-5.17
2023-12-03T18:40:24.338Z,-5.18
2023-12-03T18:42:28.230Z,-5.18
2023-12-03T18:44:33.011Z,-5.16
2023-12-03T18:46:36.357Z,-5.17
2023-12-03T18:48:39.425Z,-5.15
2023-12-03T18:50:42.654Z,-5.13
2023-12-03T18:52:45.697Z,-5.12
2023-12-03T18:54:50.221Z,-5.10
2023-12-03T18:56:53.145Z,-5.09
2023-12-03T18:58:56.080Z,-5.04
2023-12-03T19:00:59.215Z,-5.04
2023-12-03T19:03:02.283Z,-5.00
2023-12-03T19:05:06.079Z,-4.97
2023-12-03T19:07:09.114Z,-4.98
2023-12-03T19:09:12.126Z,-4.96
2023-12-03T19:11:16.636Z,-4.95
2023-12-03T19:13:26.759Z,-4.93
2023-12-03T19:15:30.324Z,-4.99
2023-12-03T19:17:33.337Z,-4.97
2023-12-03T19:19:36.956Z,-4.94
2023-12-03T19:23:43.404Z,-4.93
2023-12-03T19:25:46.335Z,-4.93
2023-12-03T19:27:51.004Z,-4.92
2023-12-03T19:29:56.079Z,-4.91
2023-12-03T19:31:59.191Z,-4.85
2023-12-03T19:34:03.849Z,-4.94
2023-12-03T19:36:08.163Z,-4.90
2023-12-03T19:38:13.048Z,-4.85
2023-12-03T19:40:16.208Z,-4.89
2023-12-03T19:42:19.347Z,-4.87
2023-12-03T19:44:23.973Z,-4.83
2023-12-03T19:46:26.969Z,-4.85
2023-12-03T19:48:30.257Z,-4.88
2023-12-03T19:50:35.489Z,-4.83
2023-12-03T19:52:39.666Z,-4.84
2023-12-03T19:54:43.152Z,-4.85
2023-12-03T19:56:46.160Z,-4.81
2023-12-03T19:58:50.348Z,-4.82
2023-12-03T20:00:55.193Z,-5.00
2023-12-03T20:02:58.117Z,-4.94
2023-12-03T20:05:01.523Z,-4.97
2023-12-03T20:07:05.420Z,-4.96
2023-12-03T20:09:08.711Z,-4.91
2023-12-03T20:11:11.904Z,-4.87
2023-12-03T20:13:15.002Z,-4.85
2023-12-03T20:15:25.019Z,-4.86
2023-12-03T20:17:33.869Z,-4.85
2023-12-03T20:19:37.389Z,-4.85
2023-12-03T20:21:40.742Z,-4.84
2023-12-03T20:23:46.557Z,-4.84
2023-12-03T20:25:53.168Z,-4.84
2023-12-03T20:27:56.176Z,-4.96
2023-12-03T20:29:59.841Z,-4.87
2023-12-03T20:32:02.948Z,-4.83
2023-12-03T20:34:07.645Z,-4.84
2023-12-03T20:36:12.755Z,-4.85
2023-12-03T20:38:15.656Z,-4.81
2023-12-03T20:40:18.574Z,-4.85
2023-12-03T20:42:21.769Z,-4.79
2023-12-03T20:44:24.632Z,-4.77
2023-12-03T20:46:28.114Z,-4.81
2023-12-03T20:48:31.063Z,-4.77
2023-12-03T20:50:35.712Z,-4.74
2023-12-03T20:52:38.620Z,-4.78
2023-12-03T20:54:41.745Z,-4.76
2023-12-03T20:56:44.787Z,-4.81
2023-12-03T20:58:47.754Z,-4.82
2023-12-03T21:00:51.228Z,-4.76
2023-12-03T21:02:54.380Z,-4.75
2023-12-03T21:04:57.465Z,-4.81
2023-12-03T21:07:02.153Z,-4.83
2023-12-03T21:09:05.148Z,-4.81
2023-12-03T21:11:08.762Z,-4.78
2023-12-03T21:13:12.886Z,-4.79
2023-12-03T21:15:16.424Z,-4.83
2023-12-03T21:17:19.421Z,-4.82
2023-12-03T21:19:22.434Z,-4.82
2023-12-03T21:21:25.377Z,-4.88
2023-12-03T21:23:29.985Z,-4.87
2023-12-03T21:25:34.313Z,-4.89
2023-12-03T21:27:37.652Z,-4.91
2023-12-03T21:29:40.773Z,-4.90
2023-12-03T21:31:43.869Z,-4.92
2023-12-03T21:33:47.207Z,-4.94
2023-12-03T21:35:52.589Z,-4.98
2023-12-03T21:37:55.597Z,-4.92
2023-12-03T21:40:00.316Z,-4.93
2023-12-03T21:42:03.324Z,-4.98
2023-12-03T21:44:06.438Z,-4.92
2023-12-03T21:46:09.511Z,-5.01
2023-12-03T21:48:12.995Z,-4.93
2023-12-03T21:50:16.000Z,-4.89
2023-12-03T21:52:21.052Z,-4.98
2023-12-03T21:54:24.526Z,-4.96
2023-12-03T21:56:29.486Z,-4.95
2023-12-03T21:58:34.122Z,-4.94
2023-12-03T22:00:37.429Z,-4.93
2023-12-03T22:02:40.383Z,-4.96
2023-12-03T22:04:43.386Z,-5.05
2023-12-03T22:06:46.538Z,-4.97
2023-12-03T22:08:49.603Z,-5.00
2023-12-03T22:10:54.337Z,-4.98
2023-12-03T22:12:58.986Z,-4.99
2023-12-03T22:15:02.215Z,-5.05
2023-12-03T22:17:06.487Z,-5.00
2023-12-03T22:19:09.500Z,-4.98
2023-12-03T22:21:12.881Z,-4.97
2023-12-03T22:23:15.910Z,-4.99
2023-12-03T22:25:18.867Z,-5.01
2023-12-03T22:27:22.153Z,-4.96
2023-12-03T22:29:35.418Z,-5.00
2023-12-03T22:31:46.986Z,-4.96
2023-12-03T22:33:50.006Z,-4.97
2023-12-03T22:35:53.045Z,-4.95
2023-12-03T22:37:56.033Z,-4.95
2023-12-03T22:39:58.960Z,-4.98
2023-12-03T22:42:01.925Z,-5.00
2023-12-03T22:44:05.147Z,-5.03
2023-12-03T22:46:09.976Z,-5.05
2023-12-03T22:48:12.908Z,-5.07
2023-12-03T22:50:15.964Z,-5.10
2023-12-03T22:52:18.938Z,-5.11
2023-12-03T22:54:21.918Z,-5.12
2023-12-03T22:56:24.904Z,-5.13
2023-12-03T22:58:28.167Z,-5.15
2023-12-03T23:00:31.640Z,-5.16
2023-12-03T23:02:37.038Z,-5.19
2023-12-03T23:04:39.971Z,-5.22
2023-12-03T23:06:43.717Z,-5.18
2023-12-03T23:08:46.648Z,-5.18
2023-12-03T23:10:49.565Z,-5.16
2023-12-03T23:12:52.774Z,-5.17
2023-12-03T23:14:55.897Z,-5.19
2023-12-03T23:16:58.814Z,-5.22
2023-12-03T23:19:03.848Z,-5.23
2023-12-03T23:21:07.291Z,-5.24
2023-12-03T23:23:10.311Z,-5.23
2023-12-03T23:25:13.531Z,-5.20
2023-12-03T23:27:19.872Z,-5.18
2023-12-03T23:29:23.292Z,-5.17
2023-12-03T23:31:26.592Z,-5.20
2023-12-03T23:33:30.545Z,-5.20
2023-12-03T23:35:35.210Z,-5.20
2023-12-03T23:37:38.207Z,-5.23
2023-12-03T23:39:42.498Z,-5.25
2023-12-03T23:41:45.520Z,-5.25
2023-12-03T23:43:49.090Z,-5.29
2023-12-03T23:45:52.095Z,-5.26
2023-12-03T23:47:55.266Z,-5.34
2023-12-03T23:49:58.157Z,-5.33
2023-12-03T23:52:02.844Z,-5.33
2023-12-03T23:54:06.222Z,-5.34
2023-12-03T23:56:10.617Z,-5.38
2023-12-03T23:58:13.524Z,-5.44
